sensor_id;sensor_type;location;lat;lon;timestamp;temperature;humidity
2112;DHT22;1062;52.538;13.400;2023-03-14T00:01:29;12.20;99.90
2112;DHT22;1062;52.538;13.400;2023-03-14T00:03:55;12.20;99.90
2112;DHT22;1062;52.538;13.400;2023-03-14T00:06:21;12.10;99.90
2112;DHT22;1062;52.538;13.400;2023-03-14T00:08:47;12.10;99.90
2112;DHT22;1062;52.538;13.400;2023-03-14T00:11:18;12.10;99.90
2112;DHT22;1062;52.538;13.400;2023-03-14T00:13:49;12.10;99.90
2112;DHT22;1062;52.538;13.400;2023-03-14T00:16:16;12.00;99.90
2112;DHT22;1062;52.538;13.400;2023-03-14T00:18:42;12.00;99.90
2112;DHT22;1062;52.538;13.400;2023-03-14T00:21:09;12.00;99.90
2112;DHT22;1062;52.538;13.400;2023-03-14T00:23:37;11.90;99.90
2112;DHT22;1062;52.538;13.400;2023-03-14T00:26:09;11.90;99.90
2112;DHT22;1062;52.538;13.400;2023-03-14T00:28:36;11.90;99.90
2112;DHT22;1062;52.538;13.400;2023-03-14T00:31:03;11.80;99.90
2112;DHT22;1062;52.538;13.400;2023-03-14T00:33:29;11.70;99.90
2112;DHT22;1062;52.538;13.400;2023-03-14T00:36:01;11.70;99.90
2112;DHT22;1062;52.538;13.400;2023-03-14T00:38:27;11.70;99.90
2112;DHT22;1062;52.538;13.400;2023-03-14T00:40:53;11.70;99.90
2112;DHT22;1062;52.538;13.400;2023-03-14T00:43:20;11.70;99.90
2112;DHT22;1062;52.538;13.400;2023-03-14T00:45:52;11.70;99.90
2112;DHT22;1062;52.538;13.400;2023-03-14T00:48:19;11.60;99.90
2112;DHT22;1062;52.538;13.400;2023-03-14T00:50:45;11.60;99.90
2112;DHT22;1062;52.538;13.400;2023-03-14T00:53:11;11.60;99.90
2112;DHT22;1062;52.538;13.400;2023-03-14T00:55:38;11.60;99.90
2112;DHT22;1062;52.538;13.400;2023-03-14T00:58:04;11.50;99.90
2112;DHT22;1062;52.538;13.400;2023-03-14T01:00:29;11.50;99.90
2112;DHT22;1062;52.538;13.400;2023-03-14T01:02:55;11.50;99.90
2112;DHT22;1062;52.538;13.400;2023-03-14T01:05:22;11.50;99.90
2112;DHT22;1062;52.538;13.400;2023-03-14T01:07:48;11.50;99.90
2112;DHT22;1062;52.538;13.400;2023-03-14T01:10:13;11.40;99.90
2112;DHT22;1062;52.538;13.400;2023-03-14T01:12:39;11.40;99.90
2112;DHT22;1062;52.538;13.400;2023-03-14T01:15:05;11.40;99.90
2112;DHT22;1062;52.538;13.400;2023-03-14T01:17:31;11.40;99.90
2112;DHT22;1062;52.538;13.400;2023-03-14T01:19:56;11.30;99.90
2112;DHT22;1062;52.538;13.400;2023-03-14T01:22:22;11.40;99.90
2112;DHT22;1062;52.538;13.400;2023-03-14T01:24:48;11.40;99.90
2112;DHT22;1062;52.538;13.400;2023-03-14T01:27:13;11.30;99.90
2112;DHT22;1062;52.538;13.400;2023-03-14T01:29:39;11.30;99.90
2112;DHT22;1062;52.538;13.400;2023-03-14T01:32:04;11.30;99.90
2112;DHT22;1062;52.538;13.400;2023-03-14T01:34:30;11.20;99.90
2112;DHT22;1062;52.538;13.400;2023-03-14T01:36:56;11.30;99.90
2112;DHT22;1062;52.538;13.400;2023-03-14T01:39:21;11.30;99.90
2112;DHT22;1062;52.538;13.400;2023-03-14T01:41:47;11.30;99.90
2112;DHT22;1062;52.538;13.400;2023-03-14T01:44:13;11.40;99.90
2112;DHT22;1062;52.538;13.400;2023-03-14T01:51:50;11.40;99.90
2112;DHT22;1062;52.538;13.400;2023-03-14T01:54:36;11.50;99.90
2112;DHT22;1062;52.538;13.400;2023-03-14T01:57:30;11.50;99.90
2112;DHT22;1062;52.538;13.400;2023-03-14T01:59:59;11.50;99.90
2112;DHT22;1062;52.538;13.400;2023-03-14T02:02:26;11.50;99.90
2112;DHT22;1062;52.538;13.400;2023-03-14T02:04:54;11.50;99.90
2112;DHT22;1062;52.538;13.400;2023-03-14T02:07:46;11.40;99.90
2112;DHT22;1062;52.538;13.400;2023-03-14T02:10:14;11.40;99.90
2112;DHT22;1062;52.538;13.400;2023-03-14T02:12:41;11.40;99.90
2112;DHT22;1062;52.538;13.400;2023-03-14T02:15:07;11.40;99.90
2112;DHT22;1062;52.538;13.400;2023-03-14T02:17:34;11.40;99.90
2112;DHT22;1062;52.538;13.400;2023-03-14T02:22:36;11.30;99.90
2112;DHT22;1062;52.538;13.400;2023-03-14T02:27:53;11.30;99.90
2112;DHT22;1062;52.538;13.400;2023-03-14T02:30:30;11.30;99.90
2112;DHT22;1062;52.538;13.400;2023-03-14T02:33:08;11.30;99.90
2112;DHT22;1062;52.538;13.400;2023-03-14T02:35:52;11.40;99.90
2112;DHT22;1062;52.538;13.400;2023-03-14T02:38:33;11.40;99.90
2112;DHT22;1062;52.538;13.400;2023-03-14T02:41:01;11.40;99.90
2112;DHT22;1062;52.538;13.400;2023-03-14T02:43:27;11.40;99.90
2112;DHT22;1062;52.538;13.400;2023-03-14T02:45:53;11.50;99.90
2112;DHT22;1062;52.538;13.400;2023-03-14T02:48:26;11.50;99.90
2112;DHT22;1062;52.538;13.400;2023-03-14T02:50:55;11.50;99.90
2112;DHT22;1062;52.538;13.400;2023-03-14T02:53:28;11.40;99.90
2112;DHT22;1062;52.538;13.400;2023-03-14T02:55:54;11.40;99.90
2112;DHT22;1062;52.538;13.400;2023-03-14T02:58:20;11.40;99.90
2112;DHT22;1062;52.538;13.400;2023-03-14T03:00:46;11.30;99.90
2112;DHT22;1062;52.538;13.400;2023-03-14T03:03:13;11.30;99.90
2112;DHT22;1062;52.538;13.400;2023-03-14T03:05:38;11.30;99.90
2112;DHT22;1062;52.538;13.400;2023-03-14T03:08:05;11.20;99.90
2112;DHT22;1062;52.538;13.400;2023-03-14T03:10:31;11.20;99.90
2112;DHT22;1062;52.538;13.400;2023-03-14T03:12:57;11.20;99.90
2112;DHT22;1062;52.538;13.400;2023-03-14T03:15:23;11.20;99.90
2112;DHT22;1062;52.538;13.400;2023-03-14T03:17:49;11.20;99.90
2112;DHT22;1062;52.538;13.400;2023-03-14T03:20:15;11.20;99.90
2112;DHT22;1062;52.538;13.400;2023-03-14T03:22:41;11.10;99.90
2112;DHT22;1062;52.538;13.400;2023-03-14T03:25:07;11.10;99.90
2112;DHT22;1062;52.538;13.400;2023-03-14T03:27:34;11.10;99.90
2112;DHT22;1062;52.538;13.400;2023-03-14T03:30:00;11.10;99.90
2112;DHT22;1062;52.538;13.400;2023-03-14T03:32:27;11.10;99.90
2112;DHT22;1062;52.538;13.400;2023-03-14T03:34:52;11.10;99.90
2112;DHT22;1062;52.538;13.400;2023-03-14T03:37:18;11.10;99.90
2112;DHT22;1062;52.538;13.400;2023-03-14T03:39:44;11.10;99.90
2112;DHT22;1062;52.538;13.400;2023-03-14T03:42:10;11.00;99.90
2112;DHT22;1062;52.538;13.400;2023-03-14T03:44:36;11.00;99.90
2112;DHT22;1062;52.538;13.400;2023-03-14T03:47:02;11.00;99.90
2112;DHT22;1062;52.538;13.400;2023-03-14T03:49:32;11.00;99.90
2112;DHT22;1062;52.538;13.400;2023-03-14T03:51:58;11.00;99.90
2112;DHT22;1062;52.538;13.400;2023-03-14T03:54:24;11.00;99.90
2112;DHT22;1062;52.538;13.400;2023-03-14T03:56:50;11.00;99.90
2112;DHT22;1062;52.538;13.400;2023-03-14T03:59:16;11.00;99.90
2112;DHT22;1062;52.538;13.400;2023-03-14T04:01:42;11.00;99.90
2112;DHT22;1062;52.538;13.400;2023-03-14T04:04:08;11.00;99.90
2112;DHT22;1062;52.538;13.400;2023-03-14T04:06:33;11.00;99.90
2112;DHT22;1062;52.538;13.400;2023-03-14T04:08:59;11.00;99.90
2112;DHT22;1062;52.538;13.400;2023-03-14T04:11:25;11.00;99.90
2112;DHT22;1062;52.538;13.400;2023-03-14T04:13:50;10.90;99.90
2112;DHT22;1062;52.538;13.400;2023-03-14T04:16:19;10.90;99.90
2112;DHT22;1062;52.538;13.400;2023-03-14T04:18:45;10.90;99.90
2112;DHT22;1062;52.538;13.400;2023-03-14T04:21:11;10.90;99.90
2112;DHT22;1062;52.538;13.400;2023-03-14T04:23:36;10.90;99.90
2112;DHT22;1062;52.538;13.400;2023-03-14T04:26:02;10.90;99.90
2112;DHT22;1062;52.538;13.400;2023-03-14T04:28:28;10.90;99.90
2112;DHT22;1062;52.538;13.400;2023-03-14T04:30:54;10.80;99.90
2112;DHT22;1062;52.538;13.400;2023-03-14T04:33:19;10.80;99.90
2112;DHT22;1062;52.538;13.400;2023-03-14T04:35:45;10.80;99.90
2112;DHT22;1062;52.538;13.400;2023-03-14T04:38:12;10.80;99.90
2112;DHT22;1062;52.538;13.400;2023-03-14T04:40:38;10.80;99.90
2112;DHT22;1062;52.538;13.400;2023-03-14T04:43:04;10.80;99.90
2112;DHT22;1062;52.538;13.400;2023-03-14T04:45:30;10.80;99.90
2112;DHT22;1062;52.538;13.400;2023-03-14T04:47:56;10.80;99.90
2112;DHT22;1062;52.538;13.400;2023-03-14T04:50:21;10.80;99.90
2112;DHT22;1062;52.538;13.400;2023-03-14T04:52:47;10.70;99.90
2112;DHT22;1062;52.538;13.400;2023-03-14T04:55:12;10.70;99.90
2112;DHT22;1062;52.538;13.400;2023-03-14T04:57:38;10.80;99.90
2112;DHT22;1062;52.538;13.400;2023-03-14T05:00:04;10.70;99.90
2112;DHT22;1062;52.538;13.400;2023-03-14T05:02:34;10.70;99.90
2112;DHT22;1062;52.538;13.400;2023-03-14T05:05:00;10.70;99.90
2112;DHT22;1062;52.538;13.400;2023-03-14T05:07:25;10.70;99.90
2112;DHT22;1062;52.538;13.400;2023-03-14T05:09:51;10.70;99.90
2112;DHT22;1062;52.538;13.400;2023-03-14T05:12:19;10.80;99.90
2112;DHT22;1062;52.538;13.400;2023-03-14T05:14:44;10.80;99.90
2112;DHT22;1062;52.538;13.400;2023-03-14T05:17:10;10.80;99.90
2112;DHT22;1062;52.538;13.400;2023-03-14T05:19:38;10.80;99.90
2112;DHT22;1062;52.538;13.400;2023-03-14T05:22:04;10.80;99.90
2112;DHT22;1062;52.538;13.400;2023-03-14T05:24:29;10.80;99.90
2112;DHT22;1062;52.538;13.400;2023-03-14T05:26:55;10.70;99.90
2112;DHT22;1062;52.538;13.400;2023-03-14T05:29:20;10.80;99.90
2112;DHT22;1062;52.538;13.400;2023-03-14T05:31:46;10.70;99.90
2112;DHT22;1062;52.538;13.400;2023-03-14T05:34:12;10.80;99.90
2112;DHT22;1062;52.538;13.400;2023-03-14T05:36:38;10.80;99.90
2112;DHT22;1062;52.538;13.400;2023-03-14T05:39:03;10.80;99.90
2112;DHT22;1062;52.538;13.400;2023-03-14T05:41:29;10.80;99.90
2112;DHT22;1062;52.538;13.400;2023-03-14T05:43:55;10.80;99.90
2112;DHT22;1062;52.538;13.400;2023-03-14T05:46:20;10.80;99.90
2112;DHT22;1062;52.538;13.400;2023-03-14T05:48:46;10.80;99.90
2112;DHT22;1062;52.538;13.400;2023-03-14T05:51:12;10.80;99.90
2112;DHT22;1062;52.538;13.400;2023-03-14T05:53:37;10.80;99.90
2112;DHT22;1062;52.538;13.400;2023-03-14T05:56:03;10.80;99.90
2112;DHT22;1062;52.538;13.400;2023-03-14T05:58:29;10.80;99.90
2112;DHT22;1062;52.538;13.400;2023-03-14T06:00:54;10.80;99.90
2112;DHT22;1062;52.538;13.400;2023-03-14T06:03:20;10.90;99.90
2112;DHT22;1062;52.538;13.400;2023-03-14T06:05:45;10.90;99.90
2112;DHT22;1062;52.538;13.400;2023-03-14T06:08:11;10.90;99.90
2112;DHT22;1062;52.538;13.400;2023-03-14T06:10:37;10.90;99.90
2112;DHT22;1062;52.538;13.400;2023-03-14T06:13:03;11.00;99.90
2112;DHT22;1062;52.538;13.400;2023-03-14T06:15:28;11.00;99.90
2112;DHT22;1062;52.538;13.400;2023-03-14T06:17:55;11.00;99.90
2112;DHT22;1062;52.538;13.400;2023-03-14T06:20:20;11.00;99.90
2112;DHT22;1062;52.538;13.400;2023-03-14T06:22:46;11.00;99.90
2112;DHT22;1062;52.538;13.400;2023-03-14T06:25:12;11.10;99.90
2112;DHT22;1062;52.538;13.400;2023-03-14T06:27:37;11.10;99.90
2112;DHT22;1062;52.538;13.400;2023-03-14T06:30:03;11.10;99.90
2112;DHT22;1062;52.538;13.400;2023-03-14T06:32:29;11.20;99.90
2112;DHT22;1062;52.538;13.400;2023-03-14T06:34:55;11.20;99.90
2112;DHT22;1062;52.538;13.400;2023-03-14T06:37:22;11.20;99.90
2112;DHT22;1062;52.538;13.400;2023-03-14T06:39:48;11.20;99.90
2112;DHT22;1062;52.538;13.400;2023-03-14T06:42:13;11.30;99.90
2112;DHT22;1062;52.538;13.400;2023-03-14T06:44:39;11.40;99.90
2112;DHT22;1062;52.538;13.400;2023-03-14T06:47:05;11.40;99.90
2112;DHT22;1062;52.538;13.400;2023-03-14T06:49:30;11.50;99.90
2112;DHT22;1062;52.538;13.400;2023-03-14T06:51:56;11.50;99.90
2112;DHT22;1062;52.538;13.400;2023-03-14T06:54:21;11.50;99.90
2112;DHT22;1062;52.538;13.400;2023-03-14T06:56:47;11.60;99.90
2112;DHT22;1062;52.538;13.400;2023-03-14T06:59:12;11.70;99.90
2112;DHT22;1062;52.538;13.400;2023-03-14T07:01:38;11.90;99.90
2112;DHT22;1062;52.538;13.400;2023-03-14T07:04:04;12.00;99.90
2112;DHT22;1062;52.538;13.400;2023-03-14T07:06:29;12.10;99.90
2112;DHT22;1062;52.538;13.400;2023-03-14T07:08:55;12.20;99.90
2112;DHT22;1062;52.538;13.400;2023-03-14T07:11:22;12.30;99.90
2112;DHT22;1062;52.538;13.400;2023-03-14T07:13:47;12.40;99.90
2112;DHT22;1062;52.538;13.400;2023-03-14T07:16:13;12.50;99.90
2112;DHT22;1062;52.538;13.400;2023-03-14T07:18:39;12.40;99.90
2112;DHT22;1062;52.538;13.400;2023-03-14T07:21:08;12.30;99.90
2112;DHT22;1062;52.538;13.400;2023-03-14T07:23:35;12.30;99.90
2112;DHT22;1062;52.538;13.400;2023-03-14T07:26:01;12.20;99.90
2112;DHT22;1062;52.538;13.400;2023-03-14T07:28:26;12.20;99.90
2112;DHT22;1062;52.538;13.400;2023-03-14T07:30:55;12.30;99.90
2112;DHT22;1062;52.538;13.400;2023-03-14T07:33:21;12.30;99.90
2112;DHT22;1062;52.538;13.400;2023-03-14T07:35:48;12.40;99.90
2112;DHT22;1062;52.538;13.400;2023-03-14T07:38:14;12.60;99.90
2112;DHT22;1062;52.538;13.400;2023-03-14T07:40:39;12.60;99.90
2112;DHT22;1062;52.538;13.400;2023-03-14T07:43:05;12.50;99.90
2112;DHT22;1062;52.538;13.400;2023-03-14T07:45:31;12.50;99.90
2112;DHT22;1062;52.538;13.400;2023-03-14T07:47:56;12.60;99.90
2112;DHT22;1062;52.538;13.400;2023-03-14T07:50:24;12.70;99.90
2112;DHT22;1062;52.538;13.400;2023-03-14T07:52:50;12.70;99.90
2112;DHT22;1062;52.538;13.400;2023-03-14T07:55:15;12.60;99.90
2112;DHT22;1062;52.538;13.400;2023-03-14T07:57:41;12.80;99.90
2112;DHT22;1062;52.538;13.400;2023-03-14T08:00:07;12.80;99.90
2112;DHT22;1062;52.538;13.400;2023-03-14T08:02:33;13.00;99.90
2112;DHT22;1062;52.538;13.400;2023-03-14T08:04:59;13.30;99.90
2112;DHT22;1062;52.538;13.400;2023-03-14T08:07:24;13.80;99.90
2112;DHT22;1062;52.538;13.400;2023-03-14T08:09:50;13.80;99.90
2112;DHT22;1062;52.538;13.400;2023-03-14T08:12:15;13.70;99.90
2112;DHT22;1062;52.538;13.400;2023-03-14T08:14:41;13.50;99.90
2112;DHT22;1062;52.538;13.400;2023-03-14T08:17:07;13.40;99.90
2112;DHT22;1062;52.538;13.400;2023-03-14T08:19:34;13.30;99.90
2112;DHT22;1062;52.538;13.400;2023-03-14T08:22:00;13.30;99.90
2112;DHT22;1062;52.538;13.400;2023-03-14T08:24:25;13.50;99.90
2112;DHT22;1062;52.538;13.400;2023-03-14T08:26:51;13.50;99.90
2112;DHT22;1062;52.538;13.400;2023-03-14T08:29:17;13.40;99.90
2112;DHT22;1062;52.538;13.400;2023-03-14T08:31:42;13.30;99.90
2112;DHT22;1062;52.538;13.400;2023-03-14T08:34:08;13.20;99.90
2112;DHT22;1062;52.538;13.400;2023-03-14T08:36:34;13.20;99.90
2112;DHT22;1062;52.538;13.400;2023-03-14T08:38:59;13.10;99.90
2112;DHT22;1062;52.538;13.400;2023-03-14T08:41:25;13.10;99.90
2112;DHT22;1062;52.538;13.400;2023-03-14T08:43:51;13.00;99.90
2112;DHT22;1062;52.538;13.400;2023-03-14T08:46:16;13.00;99.90
2112;DHT22;1062;52.538;13.400;2023-03-14T08:48:42;13.00;99.90
2112;DHT22;1062;52.538;13.400;2023-03-14T08:51:10;12.90;99.90
2112;DHT22;1062;52.538;13.400;2023-03-14T08:53:36;12.90;99.90
2112;DHT22;1062;52.538;13.400;2023-03-14T08:56:02;12.90;99.90
2112;DHT22;1062;52.538;13.400;2023-03-14T08:58:29;12.80;99.90
2112;DHT22;1062;52.538;13.400;2023-03-14T09:00:55;12.80;99.90
2112;DHT22;1062;52.538;13.400;2023-03-14T09:03:20;12.90;99.90
2112;DHT22;1062;52.538;13.400;2023-03-14T09:05:48;12.80;99.90
2112;DHT22;1062;52.538;13.400;2023-03-14T09:08:14;12.80;99.90
2112;DHT22;1062;52.538;13.400;2023-03-14T09:10:40;12.80;99.90
2112;DHT22;1062;52.538;13.400;2023-03-14T09:13:05;12.90;99.90
2112;DHT22;1062;52.538;13.400;2023-03-14T09:15:31;13.10;99.90
2112;DHT22;1062;52.538;13.400;2023-03-14T09:17:56;13.30;99.90
2112;DHT22;1062;52.538;13.400;2023-03-14T09:20:23;13.50;99.90
2112;DHT22;1062;52.538;13.400;2023-03-14T09:22:48;13.70;99.90
2112;DHT22;1062;52.538;13.400;2023-03-14T09:25:14;14.20;99.90
2112;DHT22;1062;52.538;13.400;2023-03-14T09:27:39;14.90;99.90
2112;DHT22;1062;52.538;13.400;2023-03-14T09:30:05;15.60;99.90
2112;DHT22;1062;52.538;13.400;2023-03-14T09:32:31;15.70;99.90
2112;DHT22;1062;52.538;13.400;2023-03-14T09:34:57;15.60;99.90
2112;DHT22;1062;52.538;13.400;2023-03-14T09:37:23;15.70;99.90
2112;DHT22;1062;52.538;13.400;2023-03-14T09:39:48;16.00;99.90
2112;DHT22;1062;52.538;13.400;2023-03-14T09:42:17;15.80;99.90
2112;DHT22;1062;52.538;13.400;2023-03-14T09:45:06;15.80;99.90
2112;DHT22;1062;52.538;13.400;2023-03-14T09:47:33;15.60;99.90
2112;DHT22;1062;52.538;13.400;2023-03-14T09:50:03;15.50;99.90
2112;DHT22;1062;52.538;13.400;2023-03-14T09:52:35;15.30;99.90
2112;DHT22;1062;52.538;13.400;2023-03-14T09:55:22;15.10;99.90
2112;DHT22;1062;52.538;13.400;2023-03-14T09:58:00;14.90;99.90
2112;DHT22;1062;52.538;13.400;2023-03-14T10:00:29;14.40;99.90
2112;DHT22;1062;52.538;13.400;2023-03-14T10:03:23;14.40;99.90
2112;DHT22;1062;52.538;13.400;2023-03-14T10:05:49;14.20;99.90
2112;DHT22;1062;52.538;13.400;2023-03-14T10:08:15;14.20;99.90
2112;DHT22;1062;52.538;13.400;2023-03-14T10:10:41;14.20;99.90
2112;DHT22;1062;52.538;13.400;2023-03-14T10:13:23;14.20;99.90
2112;DHT22;1062;52.538;13.400;2023-03-14T10:15:55;14.10;99.90
2112;DHT22;1062;52.538;13.400;2023-03-14T10:18:22;14.00;99.90
2112;DHT22;1062;52.538;13.400;2023-03-14T10:21:00;14.10;99.90
2112;DHT22;1062;52.538;13.400;2023-03-14T10:23:28;14.00;99.90
2112;DHT22;1062;52.538;13.400;2023-03-14T10:28:31;14.10;99.90
2112;DHT22;1062;52.538;13.400;2023-03-14T10:30:58;14.10;99.90
2112;DHT22;1062;52.538;13.400;2023-03-14T10:33:30;14.10;99.90
2112;DHT22;1062;52.538;13.400;2023-03-14T10:36:00;14.00;99.90
2112;DHT22;1062;52.538;13.400;2023-03-14T10:38:34;14.00;99.90
2112;DHT22;1062;52.538;13.400;2023-03-14T10:41:00;13.90;99.90
2112;DHT22;1062;52.538;13.400;2023-03-14T10:43:31;13.90;99.90
2112;DHT22;1062;52.538;13.400;2023-03-14T10:45:59;13.80;99.90
2112;DHT22;1062;52.538;13.400;2023-03-14T10:48:31;13.80;99.90
2112;DHT22;1062;52.538;13.400;2023-03-14T10:51:09;13.80;99.90
2112;DHT22;1062;52.538;13.400;2023-03-14T10:53:43;13.80;99.90
2112;DHT22;1062;52.538;13.400;2023-03-14T10:56:18;13.80;99.90
2112;DHT22;1062;52.538;13.400;2023-03-14T10:58:46;13.80;99.90
2112;DHT22;1062;52.538;13.400;2023-03-14T11:15:42;13.80;99.90
2112;DHT22;1062;52.538;13.400;2023-03-14T11:21:08;13.70;99.90
2112;DHT22;1062;52.538;13.400;2023-03-14T11:26:42;13.70;99.90
2112;DHT22;1062;52.538;13.400;2023-03-14T11:32:02;13.80;99.90
2112;DHT22;1062;52.538;13.400;2023-03-14T11:37:26;13.80;99.90
2112;DHT22;1062;52.538;13.400;2023-03-14T11:42:43;13.80;99.90
2112;DHT22;1062;52.538;13.400;2023-03-14T11:45:20;13.80;99.90
2112;DHT22;1062;52.538;13.400;2023-03-14T11:48:05;13.80;99.90
2112;DHT22;1062;52.538;13.400;2023-03-14T11:50:33;13.90;99.90
2112;DHT22;1062;52.538;13.400;2023-03-14T11:53:11;14.00;99.90
2112;DHT22;1062;52.538;13.400;2023-03-14T11:55:40;14.00;99.90
2112;DHT22;1062;52.538;13.400;2023-03-14T12:00:47;14.00;99.90
2112;DHT22;1062;52.538;13.400;2023-03-14T12:03:28;14.00;99.90
2112;DHT22;1062;52.538;13.400;2023-03-14T12:08:49;14.10;99.90
2112;DHT22;1062;52.538;13.400;2023-03-14T12:13:58;14.00;99.90
2112;DHT22;1062;52.538;13.400;2023-03-14T12:18:52;14.20;99.90
2112;DHT22;1062;52.538;13.400;2023-03-14T12:21:18;14.30;99.90
2112;DHT22;1062;52.538;13.400;2023-03-14T12:23:52;14.30;99.90
2112;DHT22;1062;52.538;13.400;2023-03-14T12:26:19;14.30;99.90
2112;DHT22;1062;52.538;13.400;2023-03-14T12:28:50;14.30;99.90
2112;DHT22;1062;52.538;13.400;2023-03-14T12:42:38;14.40;99.90
2112;DHT22;1062;52.538;13.400;2023-03-14T12:47:50;14.80;99.90
2112;DHT22;1062;52.538;13.400;2023-03-14T12:50:25;14.70;99.90
2112;DHT22;1062;52.538;13.400;2023-03-14T12:53:20;14.80;99.90
2112;DHT22;1062;52.538;13.400;2023-03-14T12:56:02;14.50;99.90
2112;DHT22;1062;52.538;13.400;2023-03-14T13:01:05;14.60;99.90
2112;DHT22;1062;52.538;13.400;2023-03-14T13:03:46;14.90;99.90
2112;DHT22;1062;52.538;13.400;2023-03-14T13:06:12;14.60;99.90
2112;DHT22;1062;52.538;13.400;2023-03-14T13:08:43;14.40;99.90
2112;DHT22;1062;52.538;13.400;2023-03-14T13:11:14;14.20;99.90
2112;DHT22;1062;52.538;13.400;2023-03-14T13:13:55;13.90;99.90
2112;DHT22;1062;52.538;13.400;2023-03-14T13:16:22;13.60;99.90
2112;DHT22;1062;52.538;13.400;2023-03-14T13:18:50;13.70;99.90
2112;DHT22;1062;52.538;13.400;2023-03-14T13:21:24;13.70;99.90
2112;DHT22;1062;52.538;13.400;2023-03-14T13:24:22;13.30;99.90
2112;DHT22;1062;52.538;13.400;2023-03-14T13:26:49;13.10;99.90
2112;DHT22;1062;52.538;13.400;2023-03-14T13:29:26;12.90;99.90
2112;DHT22;1062;52.538;13.400;2023-03-14T13:31:58;12.90;99.90
2112;DHT22;1062;52.538;13.400;2023-03-14T13:34:26;13.00;99.90
2112;DHT22;1062;52.538;13.400;2023-03-14T13:36:54;13.30;99.90
2112;DHT22;1062;52.538;13.400;2023-03-14T13:39:22;13.40;99.90
2112;DHT22;1062;52.538;13.400;2023-03-14T13:41:54;13.50;99.90
2112;DHT22;1062;52.538;13.400;2023-03-14T13:44:30;13.60;99.90
2112;DHT22;1062;52.538;13.400;2023-03-14T13:47:01;13.60;99.90
2112;DHT22;1062;52.538;13.400;2023-03-14T13:49:29;13.80;99.90
2112;DHT22;1062;52.538;13.400;2023-03-14T13:51:57;13.90;99.90
2112;DHT22;1062;52.538;13.400;2023-03-14T13:54:26;14.00;99.90
2112;DHT22;1062;52.538;13.400;2023-03-14T13:57:02;14.20;99.90
2112;DHT22;1062;52.538;13.400;2023-03-14T13:59:30;14.40;99.90
2112;DHT22;1062;52.538;13.400;2023-03-14T14:01:57;14.90;99.90
2112;DHT22;1062;52.538;13.400;2023-03-14T14:04:25;15.10;99.90
2112;DHT22;1062;52.538;13.400;2023-03-14T14:06:55;15.10;99.90
2112;DHT22;1062;52.538;13.400;2023-03-14T14:09:28;15.50;99.90
2112;DHT22;1062;52.538;13.400;2023-03-14T14:11:55;15.40;99.90
2112;DHT22;1062;52.538;13.400;2023-03-14T14:14:36;15.20;99.90
2112;DHT22;1062;52.538;13.400;2023-03-14T14:17:05;15.20;99.90
2112;DHT22;1062;52.538;13.400;2023-03-14T14:19:34;15.20;99.90
2112;DHT22;1062;52.538;13.400;2023-03-14T14:22:01;15.30;99.90
2112;DHT22;1062;52.538;13.400;2023-03-14T14:24:32;15.20;99.90
2112;DHT22;1062;52.538;13.400;2023-03-14T14:27:14;15.10;99.90
2112;DHT22;1062;52.538;13.400;2023-03-14T14:29:40;14.80;99.90
2112;DHT22;1062;52.538;13.400;2023-03-14T14:32:14;14.50;99.90
2112;DHT22;1062;52.538;13.400;2023-03-14T14:34:45;14.40;99.90
2112;DHT22;1062;52.538;13.400;2023-03-14T14:37:19;14.30;99.90
2112;DHT22;1062;52.538;13.400;2023-03-14T14:39:46;14.30;99.90
2112;DHT22;1062;52.538;13.400;2023-03-14T14:42:15;14.30;99.90
2112;DHT22;1062;52.538;13.400;2023-03-14T14:44:43;14.30;99.90
2112;DHT22;1062;52.538;13.400;2023-03-14T14:47:14;14.20;99.90
2112;DHT22;1062;52.538;13.400;2023-03-14T14:49:41;14.20;99.90
2112;DHT22;1062;52.538;13.400;2023-03-14T14:52:14;14.30;99.90
2112;DHT22;1062;52.538;13.400;2023-03-14T14:55:13;14.30;99.90
2112;DHT22;1062;52.538;13.400;2023-03-14T14:57:52;14.20;99.90
2112;DHT22;1062;52.538;13.400;2023-03-14T15:00:21;14.10;99.90
2112;DHT22;1062;52.538;13.400;2023-03-14T15:02:49;14.10;99.90
2112;DHT22;1062;52.538;13.400;2023-03-14T15:05:27;14.00;99.90
2112;DHT22;1062;52.538;13.400;2023-03-14T15:07:55;14.00;99.90
2112;DHT22;1062;52.538;13.400;2023-03-14T15:10:23;13.90;99.90
2112;DHT22;1062;52.538;13.400;2023-03-14T15:12:49;13.90;99.90
2112;DHT22;1062;52.538;13.400;2023-03-14T15:15:16;13.80;99.90
2112;DHT22;1062;52.538;13.400;2023-03-14T15:17:42;13.70;99.90
2112;DHT22;1062;52.538;13.400;2023-03-14T15:20:16;13.60;99.90
2112;DHT22;1062;52.538;13.400;2023-03-14T15:22:42;10.40;99.90
2112;DHT22;1062;52.538;13.400;2023-03-14T15:25:08;8.80;99.90
2112;DHT22;1062;52.538;13.400;2023-03-14T15:27:35;8.10;99.90
2112;DHT22;1062;52.538;13.400;2023-03-14T15:30:00;7.60;99.90
2112;DHT22;1062;52.538;13.400;2023-03-14T15:32:27;7.10;99.90
2112;DHT22;1062;52.538;13.400;2023-03-14T15:34:54;6.90;99.90
2112;DHT22;1062;52.538;13.400;2023-03-14T15:37:20;6.70;99.90
2112;DHT22;1062;52.538;13.400;2023-03-14T15:39:46;6.60;99.90
2112;DHT22;1062;52.538;13.400;2023-03-14T15:42:12;6.40;99.90
2112;DHT22;1062;52.538;13.400;2023-03-14T15:44:37;6.10;99.90
2112;DHT22;1062;52.538;13.400;2023-03-14T15:47:04;5.90;99.90
2112;DHT22;1062;52.538;13.400;2023-03-14T15:49:31;5.80;99.90
2112;DHT22;1062;52.538;13.400;2023-03-14T15:51:58;5.70;99.90
2112;DHT22;1062;52.538;13.400;2023-03-14T15:54:25;5.70;99.90
2112;DHT22;1062;52.538;13.400;2023-03-14T15:56:54;5.40;99.90
2112;DHT22;1062;52.538;13.400;2023-03-14T15:59:21;4.90;99.90
2112;DHT22;1062;52.538;13.400;2023-03-14T16:01:46;4.20;99.90
2112;DHT22;1062;52.538;13.400;2023-03-14T16:04:13;3.80;99.90
2112;DHT22;1062;52.538;13.400;2023-03-14T16:06:39;3.40;99.90
2112;DHT22;1062;52.538;13.400;2023-03-14T16:09:05;3.10;99.90
2112;DHT22;1062;52.538;13.400;2023-03-14T16:11:30;2.90;99.90
2112;DHT22;1062;52.538;13.400;2023-03-14T16:13:56;2.70;99.90
2112;DHT22;1062;52.538;13.400;2023-03-14T16:16:21;2.60;99.90
2112;DHT22;1062;52.538;13.400;2023-03-14T16:18:47;2.60;99.90
2112;DHT22;1062;52.538;13.400;2023-03-14T16:21:15;2.50;99.90
2112;DHT22;1062;52.538;13.400;2023-03-14T16:23:41;2.40;99.90
2112;DHT22;1062;52.538;13.400;2023-03-14T16:26:09;2.40;99.90
2112;DHT22;1062;52.538;13.400;2023-03-14T16:28:35;2.40;99.90
2112;DHT22;1062;52.538;13.400;2023-03-14T16:31:06;2.30;99.90
2112;DHT22;1062;52.538;13.400;2023-03-14T16:33:33;2.10;99.90
2112;DHT22;1062;52.538;13.400;2023-03-14T16:36:01;2.10;99.90
2112;DHT22;1062;52.538;13.400;2023-03-14T16:38:30;2.00;99.90
2112;DHT22;1062;52.538;13.400;2023-03-14T16:41:02;1.90;99.90
2112;DHT22;1062;52.538;13.400;2023-03-14T16:43:28;1.90;99.90
2112;DHT22;1062;52.538;13.400;2023-03-14T16:45:57;1.80;99.90
2112;DHT22;1062;52.538;13.400;2023-03-14T16:48:23;1.80;99.90
2112;DHT22;1062;52.538;13.400;2023-03-14T16:50:49;1.80;99.90
2112;DHT22;1062;52.538;13.400;2023-03-14T16:53:16;1.90;99.90
2112;DHT22;1062;52.538;13.400;2023-03-14T16:55:41;1.90;99.90
2112;DHT22;1062;52.538;13.400;2023-03-14T16:58:07;1.90;99.90
2112;DHT22;1062;52.538;13.400;2023-03-14T17:00:33;2.00;99.90
2112;DHT22;1062;52.538;13.400;2023-03-14T17:02:59;1.90;99.90